sensor_id;sensor_type;location;lat;lon;timestamp;temperature;humidity
48734;DHT22;34530;52.084;5.146;2023-03-01T00:00:13;14.20;70.60
48734;DHT22;34530;52.084;5.146;2023-03-01T00:02:38;14.20;70.60
48734;DHT22;34530;52.084;5.146;2023-03-01T00:05:04;14.20;70.60
48734;DHT22;34530;52.084;5.146;2023-03-01T00:07:30;14.20;70.60
48734;DHT22;34530;52.084;5.146;2023-03-01T00:09:56;14.20;70.60
48734;DHT22;34530;52.084;5.146;2023-03-01T00:12:22;14.20;70.60
48734;DHT22;34530;52.084;5.146;2023-03-01T00:14:47;14.20;70.60
48734;DHT22;34530;52.084;5.146;2023-03-01T00:17:13;14.10;70.50
48734;DHT22;34530;52.084;5.146;2023-03-01T00:19:39;14.10;70.50
48734;DHT22;34530;52.084;5.146;2023-03-01T00:22:04;14.10;70.50
48734;DHT22;34530;52.084;5.146;2023-03-01T00:24:30;14.10;70.60
48734;DHT22;34530;52.084;5.146;2023-03-01T00:26:55;14.10;70.50
48734;DHT22;34530;52.084;5.146;2023-03-01T00:29:23;14.10;70.50
48734;DHT22;34530;52.084;5.146;2023-03-01T00:31:49;14.10;70.50
48734;DHT22;34530;52.084;5.146;2023-03-01T00:34:14;14.10;70.50
48734;DHT22;34530;52.084;5.146;2023-03-01T00:36:40;14.10;70.50
48734;DHT22;34530;52.084;5.146;2023-03-01T00:39:10;14.10;70.40
48734;DHT22;34530;52.084;5.146;2023-03-01T00:41:36;14.10;70.40
48734;DHT22;34530;52.084;5.146;2023-03-01T00:44:02;14.00;70.30
48734;DHT22;34530;52.084;5.146;2023-03-01T00:46:27;14.00;70.30
48734;DHT22;34530;52.084;5.146;2023-03-01T00:48:55;14.00;70.30
48734;DHT22;34530;52.084;5.146;2023-03-01T00:51:26;14.00;70.20
48734;DHT22;34530;52.084;5.146;2023-03-01T00:53:58;14.00;70.20
48734;DHT22;34530;52.084;5.146;2023-03-01T00:56:24;14.00;70.20
48734;DHT22;34530;52.084;5.146;2023-03-01T00:58:50;14.00;70.90
48734;DHT22;34530;52.084;5.146;2023-03-01T01:01:19;14.00;70.20
48734;DHT22;34530;52.084;5.146;2023-03-01T01:06:30;13.90;70.00
48734;DHT22;34530;52.084;5.146;2023-03-01T01:08:57;14.00;70.10
48734;DHT22;34530;52.084;5.146;2023-03-01T01:11:24;13.90;70.00
48734;DHT22;34530;52.084;5.146;2023-03-01T01:13:50;13.90;70.00
48734;DHT22;34530;52.084;5.146;2023-03-01T01:16:17;13.90;70.00
48734;DHT22;34530;52.084;5.146;2023-03-01T01:18:44;13.90;69.90
48734;DHT22;34530;52.084;5.146;2023-03-01T01:21:12;13.90;69.90
48734;DHT22;34530;52.084;5.146;2023-03-01T01:23:39;13.90;69.90
48734;DHT22;34530;52.084;5.146;2023-03-01T01:26:10;13.90;69.80
48734;DHT22;34530;52.084;5.146;2023-03-01T01:28:36;13.90;69.80
48734;DHT22;34530;52.084;5.146;2023-03-01T01:31:02;13.80;69.80
48734;DHT22;34530;52.084;5.146;2023-03-01T01:33:28;13.80;69.70
48734;DHT22;34530;52.084;5.146;2023-03-01T01:35:54;13.90;69.80
48734;DHT22;34530;52.084;5.146;2023-03-01T01:38:20;13.90;69.80
48734;DHT22;34530;52.084;5.146;2023-03-01T01:40:47;13.80;69.70
48734;DHT22;34530;52.084;5.146;2023-03-01T01:43:23;13.80;69.60
48734;DHT22;34530;52.084;5.146;2023-03-01T01:45:49;13.80;69.60
48734;DHT22;34530;52.084;5.146;2023-03-01T01:48:21;13.80;69.60
48734;DHT22;34530;52.084;5.146;2023-03-01T01:50:59;13.80;69.60
48734;DHT22;34530;52.084;5.146;2023-03-01T01:53:25;13.80;69.60
48734;DHT22;34530;52.084;5.146;2023-03-01T01:55:54;13.80;69.60
48734;DHT22;34530;52.084;5.146;2023-03-01T01:58:24;13.70;69.50
48734;DHT22;34530;52.084;5.146;2023-03-01T02:00:51;13.70;69.40
48734;DHT22;34530;52.084;5.146;2023-03-01T02:03:23;13.70;69.40
48734;DHT22;34530;52.084;5.146;2023-03-01T02:06:07;13.70;69.40
48734;DHT22;34530;52.084;5.146;2023-03-01T02:08:40;13.70;69.30
48734;DHT22;34530;52.084;5.146;2023-03-01T02:11:08;13.70;69.40
48734;DHT22;34530;52.084;5.146;2023-03-01T02:13:34;13.70;69.30
48734;DHT22;34530;52.084;5.146;2023-03-01T02:16:03;13.70;69.30
48734;DHT22;34530;52.084;5.146;2023-03-01T02:18:30;13.70;69.30
48734;DHT22;34530;52.084;5.146;2023-03-01T02:21:25;13.70;69.30
48734;DHT22;34530;52.084;5.146;2023-03-01T02:23:54;13.70;69.20
48734;DHT22;34530;52.084;5.146;2023-03-01T02:26:51;13.60;69.20
48734;DHT22;34530;52.084;5.146;2023-03-01T02:29:18;13.70;69.20
48734;DHT22;34530;52.084;5.146;2023-03-01T02:31:43;13.60;69.20
48734;DHT22;34530;52.084;5.146;2023-03-01T02:34:21;13.60;69.20
48734;DHT22;34530;52.084;5.146;2023-03-01T02:36:50;13.60;69.10
48734;DHT22;34530;52.084;5.146;2023-03-01T02:39:23;13.60;69.20
48734;DHT22;34530;52.084;5.146;2023-03-01T02:41:52;13.60;69.20
48734;DHT22;34530;52.084;5.146;2023-03-01T02:44:18;13.60;69.10
48734;DHT22;34530;52.084;5.146;2023-03-01T02:46:51;13.60;69.10
48734;DHT22;34530;52.084;5.146;2023-03-01T02:49:28;13.60;69.10
48734;DHT22;34530;52.084;5.146;2023-03-01T02:52:12;13.50;69.00
48734;DHT22;34530;52.084;5.146;2023-03-01T02:57:10;13.50;69.00
48734;DHT22;34530;52.084;5.146;2023-03-01T02:59:37;13.50;69.00
48734;DHT22;34530;52.084;5.146;2023-03-01T03:02:19;13.50;69.00
48734;DHT22;34530;52.084;5.146;2023-03-01T03:05:05;13.50;69.00
48734;DHT22;34530;52.084;5.146;2023-03-01T03:07:34;13.50;69.00
48734;DHT22;34530;52.084;5.146;2023-03-01T03:10:01;13.50;68.90
48734;DHT22;34530;52.084;5.146;2023-03-01T03:12:26;13.50;68.90
48734;DHT22;34530;52.084;5.146;2023-03-01T03:14:52;13.50;68.90
48734;DHT22;34530;52.084;5.146;2023-03-01T03:17:17;13.50;68.90
48734;DHT22;34530;52.084;5.146;2023-03-01T03:19:43;13.40;68.90
48734;DHT22;34530;52.084;5.146;2023-03-01T03:22:11;13.50;68.80
48734;DHT22;34530;52.084;5.146;2023-03-01T03:24:37;13.40;68.80
48734;DHT22;34530;52.084;5.146;2023-03-01T03:27:03;13.40;68.80
48734;DHT22;34530;52.084;5.146;2023-03-01T03:29:29;13.40;68.70
48734;DHT22;34530;52.084;5.146;2023-03-01T03:31:54;13.40;68.70
48734;DHT22;34530;52.084;5.146;2023-03-01T03:34:20;13.40;68.70
48734;DHT22;34530;52.084;5.146;2023-03-01T03:36:45;13.40;68.70
48734;DHT22;34530;52.084;5.146;2023-03-01T03:39:11;13.40;68.70
48734;DHT22;34530;52.084;5.146;2023-03-01T03:41:37;13.40;68.70
48734;DHT22;34530;52.084;5.146;2023-03-01T03:44:02;13.40;68.70
48734;DHT22;34530;52.084;5.146;2023-03-01T03:46:28;13.40;68.70
48734;DHT22;34530;52.084;5.146;2023-03-01T03:48:53;13.30;68.60
48734;DHT22;34530;52.084;5.146;2023-03-01T03:51:19;13.30;68.60
48734;DHT22;34530;52.084;5.146;2023-03-01T03:53:45;13.30;68.60
48734;DHT22;34530;52.084;5.146;2023-03-01T03:56:11;13.30;68.50
48734;DHT22;34530;52.084;5.146;2023-03-01T03:58:37;13.30;68.50
48734;DHT22;34530;52.084;5.146;2023-03-01T04:01:03;13.30;68.50
48734;DHT22;34530;52.084;5.146;2023-03-01T04:03:30;13.30;68.50
48734;DHT22;34530;52.084;5.146;2023-03-01T04:06:00;13.30;68.50
48734;DHT22;34530;52.084;5.146;2023-03-01T04:08:27;13.30;68.50
48734;DHT22;34530;52.084;5.146;2023-03-01T04:10:57;13.30;68.50
48734;DHT22;34530;52.084;5.146;2023-03-01T04:13:23;13.30;68.50
48734;DHT22;34530;52.084;5.146;2023-03-01T04:15:51;13.20;68.40
48734;DHT22;34530;52.084;5.146;2023-03-01T04:18:18;13.30;68.50
48734;DHT22;34530;52.084;5.146;2023-03-01T04:20:45;13.20;68.40
48734;DHT22;34530;52.084;5.146;2023-03-01T04:23:18;13.20;68.40
48734;DHT22;34530;52.084;5.146;2023-03-01T04:28:21;13.20;68.40
48734;DHT22;34530;52.084;5.146;2023-03-01T04:30:49;13.20;68.40
48734;DHT22;34530;52.084;5.146;2023-03-01T04:33:15;13.20;68.40
48734;DHT22;34530;52.084;5.146;2023-03-01T04:35:40;13.20;68.30
48734;DHT22;34530;52.084;5.146;2023-03-01T04:38:06;13.20;68.30
48734;DHT22;34530;52.084;5.146;2023-03-01T04:40:33;13.20;68.30
48734;DHT22;34530;52.084;5.146;2023-03-01T04:42:58;13.20;68.30
48734;DHT22;34530;52.084;5.146;2023-03-01T04:45:24;13.10;68.20
48734;DHT22;34530;52.084;5.146;2023-03-01T04:47:50;13.10;68.20
48734;DHT22;34530;52.084;5.146;2023-03-01T04:50:18;13.10;68.20
48734;DHT22;34530;52.084;5.146;2023-03-01T04:52:48;13.10;68.20
48734;DHT22;34530;52.084;5.146;2023-03-01T04:55:14;13.10;68.20
48734;DHT22;34530;52.084;5.146;2023-03-01T04:57:39;13.10;68.10
48734;DHT22;34530;52.084;5.146;2023-03-01T05:00:08;13.10;68.10
48734;DHT22;34530;52.084;5.146;2023-03-01T05:02:55;13.10;68.10
48734;DHT22;34530;52.084;5.146;2023-03-01T05:05:24;13.10;68.10
48734;DHT22;34530;52.084;5.146;2023-03-01T05:07:52;13.10;68.10
48734;DHT22;34530;52.084;5.146;2023-03-01T05:10:18;13.10;68.10
48734;DHT22;34530;52.084;5.146;2023-03-01T05:12:44;13.10;68.10
48734;DHT22;34530;52.084;5.146;2023-03-01T05:15:10;13.10;68.10
48734;DHT22;34530;52.084;5.146;2023-03-01T05:17:35;13.00;68.00
48734;DHT22;34530;52.084;5.146;2023-03-01T05:20:01;13.00;68.00
48734;DHT22;34530;52.084;5.146;2023-03-01T05:22:29;13.00;68.00
48734;DHT22;34530;52.084;5.146;2023-03-01T05:24:54;13.00;67.90
48734;DHT22;34530;52.084;5.146;2023-03-01T05:27:20;13.00;67.90
48734;DHT22;34530;52.084;5.146;2023-03-01T05:29:47;13.00;67.90
48734;DHT22;34530;52.084;5.146;2023-03-01T05:32:13;13.00;67.90
48734;DHT22;34530;52.084;5.146;2023-03-01T05:34:41;13.00;67.90
48734;DHT22;34530;52.084;5.146;2023-03-01T05:37:07;13.00;67.90
48734;DHT22;34530;52.084;5.146;2023-03-01T05:39:33;13.00;67.90
48734;DHT22;34530;52.084;5.146;2023-03-01T05:42:00;13.00;67.90
48734;DHT22;34530;52.084;5.146;2023-03-01T05:44:27;13.00;67.90
48734;DHT22;34530;52.084;5.146;2023-03-01T05:46:54;12.90;67.80
48734;DHT22;34530;52.084;5.146;2023-03-01T05:49:20;12.90;67.80
48734;DHT22;34530;52.084;5.146;2023-03-01T05:51:50;12.90;67.80
48734;DHT22;34530;52.084;5.146;2023-03-01T05:54:17;12.90;67.80
48734;DHT22;34530;52.084;5.146;2023-03-01T05:56:43;12.90;67.80
48734;DHT22;34530;52.084;5.146;2023-03-01T05:59:10;12.90;67.80
48734;DHT22;34530;52.084;5.146;2023-03-01T06:01:36;12.90;68.50
48734;DHT22;34530;52.084;5.146;2023-03-01T06:04:03;12.90;67.80
48734;DHT22;34530;52.084;5.146;2023-03-01T06:06:29;12.90;67.80
48734;DHT22;34530;52.084;5.146;2023-03-01T06:08:55;12.90;67.80
48734;DHT22;34530;52.084;5.146;2023-03-01T06:11:21;12.90;67.80
48734;DHT22;34530;52.084;5.146;2023-03-01T06:13:47;12.90;67.70
48734;DHT22;34530;52.084;5.146;2023-03-01T06:16:14;12.80;67.60
48734;DHT22;34530;52.084;5.146;2023-03-01T06:18:40;12.80;67.60
48734;DHT22;34530;52.084;5.146;2023-03-01T06:21:07;12.80;67.70
48734;DHT22;34530;52.084;5.146;2023-03-01T06:23:33;12.80;67.60
48734;DHT22;34530;52.084;5.146;2023-03-01T06:25:59;12.80;67.60
48734;DHT22;34530;52.084;5.146;2023-03-01T06:28:25;12.80;67.60
48734;DHT22;34530;52.084;5.146;2023-03-01T06:30:51;12.80;67.60
48734;DHT22;34530;52.084;5.146;2023-03-01T06:33:17;12.80;67.60
48734;DHT22;34530;52.084;5.146;2023-03-01T06:35:45;12.80;67.60
48734;DHT22;34530;52.084;5.146;2023-03-01T06:38:11;12.80;67.60
48734;DHT22;34530;52.084;5.146;2023-03-01T06:40:37;12.70;67.50
48734;DHT22;34530;52.084;5.146;2023-03-01T06:43:02;12.70;67.50
48734;DHT22;34530;52.084;5.146;2023-03-01T06:45:28;12.70;67.50
48734;DHT22;34530;52.084;5.146;2023-03-01T06:48:01;12.70;67.50
48734;DHT22;34530;52.084;5.146;2023-03-01T06:50:27;12.80;67.50
48734;DHT22;34530;52.084;5.146;2023-03-01T06:52:56;12.70;67.40
48734;DHT22;34530;52.084;5.146;2023-03-01T06:55:22;12.70;67.50
48734;DHT22;34530;52.084;5.146;2023-03-01T06:57:47;12.70;67.50
48734;DHT22;34530;52.084;5.146;2023-03-01T07:00:14;12.70;67.40
48734;DHT22;34530;52.084;5.146;2023-03-01T07:02:39;12.70;67.40
48734;DHT22;34530;52.084;5.146;2023-03-01T07:05:06;12.70;67.40
48734;DHT22;34530;52.084;5.146;2023-03-01T07:07:32;12.70;67.40
48734;DHT22;34530;52.084;5.146;2023-03-01T07:09:57;12.70;67.40
48734;DHT22;34530;52.084;5.146;2023-03-01T07:12:23;12.70;67.50
48734;DHT22;34530;52.084;5.146;2023-03-01T07:14:48;12.70;67.40
48734;DHT22;34530;52.084;5.146;2023-03-01T07:17:14;12.70;67.40
48734;DHT22;34530;52.084;5.146;2023-03-01T07:19:40;12.70;67.40
48734;DHT22;34530;52.084;5.146;2023-03-01T07:22:05;12.70;67.30
48734;DHT22;34530;52.084;5.146;2023-03-01T07:24:33;12.70;67.30
48734;DHT22;34530;52.084;5.146;2023-03-01T07:26:59;12.70;67.30
48734;DHT22;34530;52.084;5.146;2023-03-01T07:29:24;12.70;67.30
48734;DHT22;34530;52.084;5.146;2023-03-01T07:31:50;12.70;67.30
48734;DHT22;34530;52.084;5.146;2023-03-01T07:34:15;12.70;67.20
48734;DHT22;34530;52.084;5.146;2023-03-01T07:36:41;12.70;67.30
48734;DHT22;34530;52.084;5.146;2023-03-01T07:39:09;12.70;67.30
48734;DHT22;34530;52.084;5.146;2023-03-01T07:41:35;12.70;67.20
48734;DHT22;34530;52.084;5.146;2023-03-01T07:44:01;12.70;67.20
48734;DHT22;34530;52.084;5.146;2023-03-01T07:46:26;12.80;67.30
48734;DHT22;34530;52.084;5.146;2023-03-01T07:48:52;12.80;68.00
48734;DHT22;34530;52.084;5.146;2023-03-01T07:51:18;12.80;67.30
48734;DHT22;34530;52.084;5.146;2023-03-01T07:53:46;12.80;67.20
48734;DHT22;34530;52.084;5.146;2023-03-01T07:56:13;12.80;67.20
48734;DHT22;34530;52.084;5.146;2023-03-01T07:58:41;12.80;67.20
48734;DHT22;34530;52.084;5.146;2023-03-01T08:01:14;12.80;67.20
48734;DHT22;34530;52.084;5.146;2023-03-01T08:03:40;12.80;67.20
48734;DHT22;34530;52.084;5.146;2023-03-01T08:06:08;12.80;67.20
48734;DHT22;34530;52.084;5.146;2023-03-01T08:08:34;12.80;67.10
48734;DHT22;34530;52.084;5.146;2023-03-01T08:11:02;12.90;67.10
48734;DHT22;34530;52.084;5.146;2023-03-01T08:13:29;12.90;67.10
48734;DHT22;34530;52.084;5.146;2023-03-01T08:16:00;12.90;67.00
48734;DHT22;34530;52.084;5.146;2023-03-01T08:18:25;12.90;67.10
48734;DHT22;34530;52.084;5.146;2023-03-01T08:20:51;12.90;67.10
48734;DHT22;34530;52.084;5.146;2023-03-01T08:23:17;12.90;67.10
48734;DHT22;34530;52.084;5.146;2023-03-01T08:25:42;12.90;67.20
48734;DHT22;34530;52.084;5.146;2023-03-01T08:28:08;12.90;67.30
48734;DHT22;34530;52.084;5.146;2023-03-01T08:30:34;12.90;67.40
48734;DHT22;34530;52.084;5.146;2023-03-01T08:32:59;12.90;67.50
48734;DHT22;34530;52.084;5.146;2023-03-01T08:35:25;12.90;67.50
48734;DHT22;34530;52.084;5.146;2023-03-01T08:37:50;13.00;67.60
48734;DHT22;34530;52.084;5.146;2023-03-01T08:40:16;12.90;67.60
48734;DHT22;34530;52.084;5.146;2023-03-01T08:42:42;12.90;67.70
48734;DHT22;34530;52.084;5.146;2023-03-01T08:45:11;13.00;67.90
48734;DHT22;34530;52.084;5.146;2023-03-01T08:47:36;13.00;68.00
48734;DHT22;34530;52.084;5.146;2023-03-01T08:50:02;13.00;68.10
48734;DHT22;34530;52.084;5.146;2023-03-01T08:52:28;13.00;68.10
48734;DHT22;34530;52.084;5.146;2023-03-01T08:54:55;13.00;68.20
48734;DHT22;34530;52.084;5.146;2023-03-01T08:57:21;13.00;68.20
48734;DHT22;34530;52.084;5.146;2023-03-01T08:59:47;13.00;68.20
48734;DHT22;34530;52.084;5.146;2023-03-01T09:02:14;13.00;68.20
48734;DHT22;34530;52.084;5.146;2023-03-01T09:04:40;13.10;68.40
48734;DHT22;34530;52.084;5.146;2023-03-01T09:07:06;13.10;68.40
48734;DHT22;34530;52.084;5.146;2023-03-01T09:09:31;13.20;68.50
48734;DHT22;34530;52.084;5.146;2023-03-01T09:11:57;13.20;68.60
48734;DHT22;34530;52.084;5.146;2023-03-01T09:14:23;13.30;68.70
48734;DHT22;34530;52.084;5.146;2023-03-01T09:16:48;13.30;68.70
48734;DHT22;34530;52.084;5.146;2023-03-01T09:19:14;13.40;68.90
48734;DHT22;34530;52.084;5.146;2023-03-01T09:21:40;13.40;69.20
48734;DHT22;34530;52.084;5.146;2023-03-01T09:24:16;13.50;69.90
48734;DHT22;34530;52.084;5.146;2023-03-01T09:26:41;13.60;70.30
48734;DHT22;34530;52.084;5.146;2023-03-01T09:29:07;13.60;70.70
48734;DHT22;34530;52.084;5.146;2023-03-01T09:31:34;13.70;71.00
48734;DHT22;34530;52.084;5.146;2023-03-01T09:34:00;13.70;71.30
48734;DHT22;34530;52.084;5.146;2023-03-01T09:36:26;13.70;71.60
48734;DHT22;34530;52.084;5.146;2023-03-01T09:38:51;13.80;71.70
48734;DHT22;34530;52.084;5.146;2023-03-01T09:46:42;13.90;71.90
48734;DHT22;34530;52.084;5.146;2023-03-01T09:55:00;14.00;72.00
48734;DHT22;34530;52.084;5.146;2023-03-01T09:57:36;14.00;72.00
48734;DHT22;34530;52.084;5.146;2023-03-01T10:02:57;14.10;72.10
48734;DHT22;34530;52.084;5.146;2023-03-01T10:10:52;14.10;72.10
48734;DHT22;34530;52.084;5.146;2023-03-01T10:16:10;14.20;72.20
48734;DHT22;34530;52.084;5.146;2023-03-01T10:18:37;14.20;72.10
48734;DHT22;34530;52.084;5.146;2023-03-01T10:21:18;14.20;72.10
48734;DHT22;34530;52.084;5.146;2023-03-01T10:23:44;14.20;72.10
48734;DHT22;34530;52.084;5.146;2023-03-01T10:26:38;14.30;72.10
48734;DHT22;34530;52.084;5.146;2023-03-01T10:29:09;14.30;72.00
48734;DHT22;34530;52.084;5.146;2023-03-01T10:34:15;14.30;72.00
48734;DHT22;34530;52.084;5.146;2023-03-01T10:36:43;14.30;72.00
48734;DHT22;34530;52.084;5.146;2023-03-01T10:39:15;14.30;72.00
48734;DHT22;34530;52.084;5.146;2023-03-01T10:41:56;14.40;72.00
48734;DHT22;34530;52.084;5.146;2023-03-01T10:44:39;14.40;72.00
48734;DHT22;34530;52.084;5.146;2023-03-01T10:47:09;14.40;71.90
48734;DHT22;34530;52.084;5.146;2023-03-01T10:49:38;14.40;71.90
48734;DHT22;34530;52.084;5.146;2023-03-01T10:52:18;14.40;71.80
48734;DHT22;34530;52.084;5.146;2023-03-01T10:55:01;14.40;71.70
48734;DHT22;34530;52.084;5.146;2023-03-01T10:57:36;14.50;71.80
48734;DHT22;34530;52.084;5.146;2023-03-01T11:00:25;14.50;71.80
48734;DHT22;34530;52.084;5.146;2023-03-01T11:03:11;14.50;71.60
48734;DHT22;34530;52.084;5.146;2023-03-01T11:05:57;14.50;71.60
48734;DHT22;34530;52.084;5.146;2023-03-01T11:08:49;14.50;71.50
48734;DHT22;34530;52.084;5.146;2023-03-01T11:11:22;14.50;71.40
48734;DHT22;34530;52.084;5.146;2023-03-01T11:16:24;14.60;71.40
48734;DHT22;34530;52.084;5.146;2023-03-01T11:19:19;14.60;71.30
48734;DHT22;34530;52.084;5.146;2023-03-01T11:22:02;14.80;70.50
48734;DHT22;34530;52.084;5.146;2023-03-01T11:24:37;14.80;70.80
48734;DHT22;34530;52.084;5.146;2023-03-01T11:27:14;14.70;70.80
48734;DHT22;34530;52.084;5.146;2023-03-01T11:29:44;14.70;70.70
48734;DHT22;34530;52.084;5.146;2023-03-01T11:32:13;15.10;69.70
48734;DHT22;34530;52.084;5.146;2023-03-01T11:34:51;15.00;70.10
48734;DHT22;34530;52.084;5.146;2023-03-01T11:37:28;14.90;70.10
48734;DHT22;34530;52.084;5.146;2023-03-01T11:40:05;14.90;70.20
48734;DHT22;34530;52.084;5.146;2023-03-01T11:42:40;14.90;70.10
48734;DHT22;34530;52.084;5.146;2023-03-01T11:45:11;14.90;70.10
48734;DHT22;34530;52.084;5.146;2023-03-01T11:50:42;14.90;70.00
48734;DHT22;34530;52.084;5.146;2023-03-01T11:53:28;14.90;70.10
48734;DHT22;34530;52.084;5.146;2023-03-01T11:56:16;14.80;70.00
48734;DHT22;34530;52.084;5.146;2023-03-01T12:05:06;14.90;70.00
48734;DHT22;34530;52.084;5.146;2023-03-01T12:16:09;14.90;70.00
48734;DHT22;34530;52.084;5.146;2023-03-01T12:22:01;14.90;69.90
48734;DHT22;34530;52.084;5.146;2023-03-01T12:30:17;15.10;70.10
48734;DHT22;34530;52.084;5.146;2023-03-01T12:38:31;15.10;70.70
48734;DHT22;34530;52.084;5.146;2023-03-01T12:41:20;15.20;70.90
48734;DHT22;34530;52.084;5.146;2023-03-01T12:44:23;15.10;71.80
48734;DHT22;34530;52.084;5.146;2023-03-01T12:49:23;15.20;71.20
48734;DHT22;34530;52.084;5.146;2023-03-01T12:52:07;15.30;71.30
48734;DHT22;34530;52.084;5.146;2023-03-01T12:54:36;15.30;71.20
48734;DHT22;34530;52.084;5.146;2023-03-01T12:57:52;15.30;71.40
48734;DHT22;34530;52.084;5.146;2023-03-01T13:06:07;15.30;71.50
48734;DHT22;34530;52.084;5.146;2023-03-01T13:08:56;15.30;71.70
48734;DHT22;34530;52.084;5.146;2023-03-01T13:11:23;15.30;71.80
48734;DHT22;34530;52.084;5.146;2023-03-01T13:13:49;15.30;71.90
48734;DHT22;34530;52.084;5.146;2023-03-01T13:16:40;15.30;72.00
48734;DHT22;34530;52.084;5.146;2023-03-01T13:19:10;15.30;72.00
48734;DHT22;34530;52.084;5.146;2023-03-01T13:21:38;15.30;72.10
48734;DHT22;34530;52.084;5.146;2023-03-01T13:24:04;15.40;72.10
48734;DHT22;34530;52.084;5.146;2023-03-01T13:26:29;15.40;72.10
48734;DHT22;34530;52.084;5.146;2023-03-01T13:28:56;15.40;72.00
48734;DHT22;34530;52.084;5.146;2023-03-01T13:33:57;15.50;71.90
48734;DHT22;34530;52.084;5.146;2023-03-01T13:41:56;15.50;71.90
48734;DHT22;34530;52.084;5.146;2023-03-01T13:49:57;15.80;70.70
48734;DHT22;34530;52.084;5.146;2023-03-01T13:54:59;15.70;71.20
48734;DHT22;34530;52.084;5.146;2023-03-01T13:57:33;15.60;71.30
48734;DHT22;34530;52.084;5.146;2023-03-01T13:59:59;15.60;71.20
48734;DHT22;34530;52.084;5.146;2023-03-01T14:02:25;15.60;71.30
48734;DHT22;34530;52.084;5.146;2023-03-01T14:05:00;15.60;71.30
48734;DHT22;34530;52.084;5.146;2023-03-01T14:07:27;15.60;71.40
48734;DHT22;34530;52.084;5.146;2023-03-01T14:10:01;15.60;71.40
48734;DHT22;34530;52.084;5.146;2023-03-01T14:15:19;15.70;71.50
48734;DHT22;34530;52.084;5.146;2023-03-01T14:20:28;15.70;71.40
48734;DHT22;34530;52.084;5.146;2023-03-01T14:23:01;15.70;71.40
48734;DHT22;34530;52.084;5.146;2023-03-01T14:25:33;15.80;71.40
48734;DHT22;34530;52.084;5.146;2023-03-01T14:28:11;15.80;71.30
48734;DHT22;34530;52.084;5.146;2023-03-01T14:30:43;15.80;71.00
48734;DHT22;34530;52.084;5.146;2023-03-01T14:33:33;15.80;70.70
48734;DHT22;34530;52.084;5.146;2023-03-01T14:36:12;15.80;70.10
48734;DHT22;34530;52.084;5.146;2023-03-01T14:38:47;15.80;69.60
48734;DHT22;34530;52.084;5.146;2023-03-01T14:41:55;15.80;69.30
48734;DHT22;34530;52.084;5.146;2023-03-01T14:44:05;15.70;68.80
48734;DHT22;34530;52.084;5.146;2023-03-01T14:46:41;15.80;69.40
48734;DHT22;34530;52.084;5.146;2023-03-01T14:49:17;15.80;68.30
48734;DHT22;34530;52.084;5.146;2023-03-01T14:52:00;15.80;68.30
48734;DHT22;34530;52.084;5.146;2023-03-01T14:54:39;15.80;68.30
48734;DHT22;34530;52.084;5.146;2023-03-01T14:57:12;15.80;68.40
48734;DHT22;34530;52.084;5.146;2023-03-01T14:59:41;15.80;68.50
48734;DHT22;34530;52.084;5.146;2023-03-01T15:02:16;15.80;68.50
48734;DHT22;34530;52.084;5.146;2023-03-01T15:04:45;15.80;68.50
48734;DHT22;34530;52.084;5.146;2023-03-01T15:07:13;15.90;68.80
48734;DHT22;34530;52.084;5.146;2023-03-01T15:09:40;15.90;68.80
48734;DHT22;34530;52.084;5.146;2023-03-01T15:12:44;15.80;68.80
48734;DHT22;34530;52.084;5.146;2023-03-01T15:18:13;15.80;68.90
48734;DHT22;34530;52.084;5.146;2023-03-01T15:20:40;15.80;68.90
48734;DHT22;34530;52.084;5.146;2023-03-01T15:23:05;15.80;69.00
48734;DHT22;34530;52.084;5.146;2023-03-01T15:25:32;15.80;69.00
48734;DHT22;34530;52.084;5.146;2023-03-01T15:27:59;15.90;69.00
48734;DHT22;34530;52.084;5.146;2023-03-01T15:30:34;15.90;69.00
48734;DHT22;34530;52.084;5.146;2023-03-01T15:35:53;15.90;68.90
48734;DHT22;34530;52.084;5.146;2023-03-01T15:40:52;15.90;68.90
48734;DHT22;34530;52.084;5.146;2023-03-01T15:43:57;15.90;69.00
48734;DHT22;34530;52.084;5.146;2023-03-01T15:46:33;15.90;68.80
48734;DHT22;34530;52.084;5.146;2023-03-01T15:49:05;15.90;68.90
48734;DHT22;34530;52.084;5.146;2023-03-01T15:51:35;15.90;68.90
48734;DHT22;34530;52.084;5.146;2023-03-01T15:54:08;15.90;68.80
48734;DHT22;34530;52.084;5.146;2023-03-01T15:56:36;15.90;68.80
48734;DHT22;34530;52.084;5.146;2023-03-01T15:59:02;15.90;68.80
48734;DHT22;34530;52.084;5.146;2023-03-01T16:01:29;15.90;68.80
48734;DHT22;34530;52.084;5.146;2023-03-01T16:03:55;15.90;68.80
48734;DHT22;34530;52.084;5.146;2023-03-01T16:06:21;15.90;68.80
48734;DHT22;34530;52.084;5.146;2023-03-01T16:08:47;15.90;68.80
48734;DHT22;34530;52.084;5.146;2023-03-01T16:11:17;15.90;68.70
48734;DHT22;34530;52.084;5.146;2023-03-01T16:13:43;15.90;68.70
48734;DHT22;34530;52.084;5.146;2023-03-01T16:16:14;15.90;68.70
48734;DHT22;34530;52.084;5.146;2023-03-01T16:18:45;15.90;68.60
48734;DHT22;34530;52.084;5.146;2023-03-01T16:21:14;15.90;68.60
48734;DHT22;34530;52.084;5.146;2023-03-01T16:23:42;15.90;68.60
48734;DHT22;34530;52.084;5.146;2023-03-01T16:26:07;15.90;68.50
48734;DHT22;34530;52.084;5.146;2023-03-01T16:28:33;15.90;68.50
48734;DHT22;34530;52.084;5.146;2023-03-01T16:30:59;15.90;68.40
48734;DHT22;34530;52.084;5.146;2023-03-01T16:33:26;15.90;68.40
48734;DHT22;34530;52.084;5.146;2023-03-01T16:35:52;15.90;68.30
48734;DHT22;34530;52.084;5.146;2023-03-01T16:38:18;15.90;68.40
48734;DHT22;34530;52.084;5.146;2023-03-01T16:40:48;15.90;68.40
48734;DHT22;34530;52.084;5.146;2023-03-01T16:43:14;15.90;68.30
48734;DHT22;34530;52.084;5.146;2023-03-01T16:45:40;15.90;68.30
48734;DHT22;34530;52.084;5.146;2023-03-01T16:48:06;15.90;68.30
48734;DHT22;34530;52.084;5.146;2023-03-01T16:50:33;15.90;68.30
48734;DHT22;34530;52.084;5.146;2023-03-01T16:52:58;15.90;68.20
48734;DHT22;34530;52.084;5.146;2023-03-01T16:55:24;15.90;68.20
48734;DHT22;34530;52.084;5.146;2023-03-01T16:57:49;15.90;68.20
48734;DHT22;34530;52.084;5.146;2023-03-01T17:00:16;15.90;68.10
48734;DHT22;34530;52.084;5.146;2023-03-01T17:02:43;15.90;68.10
48734;DHT22;34530;52.084;5.146;2023-03-01T17:05:09;15.90;68.00
48734;DHT22;34530;52.084;5.146;2023-03-01T17:07:37;15.90;68.00
48734;DHT22;34530;52.084;5.146;2023-03-01T17:10:05;15.90;68.00
48734;DHT22;34530;52.084;5.146;2023-03-01T17:12:33;15.90;67.90
48734;DHT22;34530;52.084;5.146;2023-03-01T17:14:59;15.90;67.90
48734;DHT22;34530;52.084;5.146;2023-03-01T17:17:25;15.90;68.70
48734;DHT22;34530;52.084;5.146;2023-03-01T17:19:51;15.90;67.90
48734;DHT22;34530;52.084;5.146;2023-03-01T17:22:16;15.90;67.90
48734;DHT22;34530;52.084;5.146;2023-03-01T17:24:42;15.90;67.80
48734;DHT22;34530;52.084;5.146;2023-03-01T17:27:09;15.80;67.80
48734;DHT22;34530;52.084;5.146;2023-03-01T17:29:36;15.90;67.80